Time;durP1;ratioP1;P1;durP2;ratioP2;P2;SDS_P1;SDS_P2;PMS_P1;PMS_P2;Temp;Humidity;BMP_temperature;BMP_pressure;BME280_temperature;BME280_humidity;BME280_pressure;Samples;Min_cycle;Max_cycle;Signal;HPM_P1;HPM_P2
2023/10/02 00:02:51;;;;;;;;;;;17.10;99.90;;;;;;8392229;28;19929;-70
2023/10/02 00:07:05;;;;;;;;;;;17.10;99.90;;;;;;8414856;28;20364;-71
2023/10/02 00:11:35;;;;;;;;;;;17.00;99.90;;;;;;8409295;28;19986;-71
2023/10/02 00:20:38;;;;;;;;;;;17.00;99.90;;;;;;8407580;28;19918;-71
2023/10/02 00:34:47;;;;;;;;;;;17.10;99.90;;;;;;8410005;28;19922;-70
2023/10/02 00:38:50;;;;;;;;;;;17.20;99.90;;;;;;8401132;28;19939;-70
2023/10/02 00:42:55;;;;;;;;;;;17.30;99.90;;;;;;8411854;28;19928;-70
2023/10/02 00:46:57;;;;;;;;;;;17.30;99.90;;;;;;8410024;28;19925;-71
2023/10/02 00:51:05;;;;;;;;;;;17.30;99.90;;;;;;8420050;28;19963;-70
2023/10/02 00:55:08;;;;;;;;;;;17.30;99.90;;;;;;8417621;28;19932;-70
2023/10/02 00:59:15;;;;;;;;;;;17.30;99.90;;;;;;8414344;28;19931;-70
2023/10/02 01:03:17;;;;;;;;;;;17.30;99.90;;;;;;8380347;28;19934;-71
2023/10/02 01:07:22;;;;;;;;;;;17.30;99.90;;;;;;8380057;28;19925;-70
2023/10/02 01:11:24;;;;;;;;;;;17.30;99.90;;;;;;8384958;28;19977;-70
2023/10/02 01:15:28;;;;;;;;;;;17.20;99.90;;;;;;8381362;28;19925;-70
2023/10/02 01:24:26;;;;;;;;;;;17.20;99.90;;;;;;8389302;28;20300;-70
2023/10/02 01:28:29;;;;;;;;;;;17.30;99.90;;;;;;8385451;28;20316;-71
2023/10/02 01:32:31;;;;;;;;;;;17.30;99.90;;;;;;8383140;28;19964;-71
2023/10/02 01:36:33;;;;;;;;;;;17.30;99.90;;;;;;8372092;28;19925;-70
2023/10/02 01:40:35;;;;;;;;;;;17.30;99.90;;;;;;8376301;28;19951;-71
2023/10/02 01:49:39;;;;;;;;;;;17.30;99.90;;;;;;8366127;28;20471;-70
2023/10/02 01:53:45;;;;;;;;;;;17.20;99.90;;;;;;8390459;28;19932;-71
2023/10/02 01:57:47;;;;;;;;;;;17.10;99.90;;;;;;8380174;28;19925;-70
2023/10/02 02:01:52;;;;;;;;;;;17.10;99.90;;;;;;8396993;28;19989;-70
2023/10/02 02:05:55;;;;;;;;;;;17.00;99.90;;;;;;8413976;28;19936;-70
2023/10/02 02:10:01;;;;;;;;;;;17.00;99.90;;;;;;8406172;28;19964;-70
2023/10/02 02:14:04;;;;;;;;;;;16.90;99.90;;;;;;8391268;28;19939;-71
2023/10/02 02:18:06;;;;;;;;;;;16.90;99.90;;;;;;8415910;28;19986;-70
2023/10/02 02:22:08;;;;;;;;;;;16.90;99.90;;;;;;8386601;28;20363;-70
2023/10/02 02:26:09;;;;;;;;;;;16.80;99.90;;;;;;8413480;28;19931;-70
2023/10/02 02:30:11;;;;;;;;;;;16.80;99.90;;;;;;8410802;28;19928;-71
2023/10/02 02:34:16;;;;;;;;;;;16.80;99.90;;;;;;8417719;28;19932;-71
2023/10/02 02:38:17;;;;;;;;;;;16.70;99.90;;;;;;8400214;28;19932;-71
2023/10/02 02:42:22;;;;;;;;;;;16.70;99.90;;;;;;8411112;28;19924;-71
2023/10/02 02:46:24;;;;;;;;;;;16.70;99.90;;;;;;8415538;28;20552;-71
2023/10/02 02:50:28;;;;;;;;;;;16.70;99.90;;;;;;8397136;28;19931;-71
2023/10/02 02:54:29;;;;;;;;;;;16.70;99.90;;;;;;8408590;28;19924;-71
2023/10/02 02:58:31;;;;;;;;;;;16.70;99.90;;;;;;8395354;28;19932;-71
2023/10/02 03:02:33;;;;;;;;;;;16.70;99.90;;;;;;8412199;28;19931;-71
2023/10/02 03:06:35;;;;;;;;;;;16.70;99.90;;;;;;8414511;28;19928;-71
2023/10/02 03:10:37;;;;;;;;;;;16.70;99.90;;;;;;8391158;28;20186;-71
2023/10/02 03:14:38;;;;;;;;;;;16.70;99.90;;;;;;8417948;28;19924;-71
2023/10/02 03:33:50;;;;;;;;;;;16.60;99.90;;;;;;8411238;28;19920;-71
2023/10/02 03:37:52;;;;;;;;;;;16.50;99.90;;;;;;8423028;28;19967;-71
2023/10/02 03:41:55;;;;;;;;;;;16.50;99.90;;;;;;8387890;28;19960;-70
2023/10/02 03:45:58;;;;;;;;;;;16.50;99.90;;;;;;8433909;28;20432;-71
2023/10/02 03:50:00;;;;;;;;;;;16.50;99.90;;;;;;8417847;28;20373;-70
2023/10/02 03:54:28;;;;;;;;;;;16.40;99.90;;;;;;8393131;28;19924;-71
2023/10/02 03:58:38;;;;;;;;;;;16.40;99.90;;;;;;8411884;28;20363;-71
2023/10/02 04:02:43;;;;;;;;;;;16.30;99.90;;;;;;8393735;28;19963;-71
2023/10/02 04:11:50;;;;;;;;;;;16.20;99.90;;;;;;8426866;28;20279;-71
2023/10/02 04:20:27;;;;;;;;;;;16.20;99.90;;;;;;8422374;28;19987;-71
2023/10/02 04:24:29;;;;;;;;;;;16.20;99.90;;;;;;8411377;28;20310;-71
2023/10/02 04:38:49;;;;;;;;;;;16.10;99.90;;;;;;8426456;28;19973;-71
2023/10/02 04:43:37;;;;;;;;;;;16.10;99.90;;;;;;8403933;28;19928;-71
2023/10/02 04:57:08;;;;;;;;;;;16.00;99.90;;;;;;8422817;28;20023;-70
2023/10/02 05:01:28;;;;;;;;;;;16.00;99.90;;;;;;8418602;28;19924;-71
2023/10/02 05:05:34;;;;;;;;;;;16.00;99.90;;;;;;8426123;28;19924;-71
2023/10/02 05:14:51;;;;;;;;;;;15.90;99.90;;;;;;8416046;28;19965;-71
2023/10/02 05:18:54;;;;;;;;;;;15.90;99.90;;;;;;8426091;28;19928;-71
2023/10/02 05:22:58;;;;;;;;;;;15.90;99.90;;;;;;8422714;28;19935;-71
2023/10/02 05:27:04;;;;;;;;;;;16.00;99.90;;;;;;8414795;28;19935;-71
2023/10/02 05:31:07;;;;;;;;;;;16.00;99.90;;;;;;8422326;28;19924;-70
2023/10/02 05:45:17;;;;;;;;;;;16.00;99.90;;;;;;8422800;28;19973;-71
2023/10/02 05:49:23;;;;;;;;;;;16.00;99.90;;;;;;8429572;28;20476;-71
2023/10/02 05:53:26;;;;;;;;;;;16.10;99.90;;;;;;8419672;28;20325;-71
2023/10/02 05:57:31;;;;;;;;;;;16.10;99.90;;;;;;8416354;28;19972;-70
2023/10/02 06:01:35;;;;;;;;;;;16.10;99.90;;;;;;8417170;28;19924;-70
2023/10/02 06:11:08;;;;;;;;;;;16.20;99.90;;;;;;8417371;28;19988;-70
2023/10/02 06:15:43;;;;;;;;;;;16.20;99.90;;;;;;8420166;28;19935;-71
2023/10/02 06:19:42;;;;;;;;;;;16.20;99.90;;;;;;8419809;28;20297;-70
2023/10/02 06:23:45;;;;;;;;;;;16.20;99.90;;;;;;8421480;28;19950;-70
2023/10/02 06:27:47;;;;;;;;;;;16.20;99.90;;;;;;8423815;28;19931;-70
2023/10/02 06:31:51;;;;;;;;;;;16.30;99.90;;;;;;8419455;28;19978;-71
2023/10/02 06:36:00;;;;;;;;;;;16.30;99.90;;;;;;8402824;28;19924;-70
2023/10/02 06:40:14;;;;;;;;;;;16.30;99.90;;;;;;8427007;28;19924;-71
2023/10/02 06:44:18;;;;;;;;;;;16.30;99.90;;;;;;8423817;28;20268;-71
2023/10/02 06:48:20;;;;;;;;;;;16.40;99.90;;;;;;8419335;28;19927;-70
2023/10/02 06:52:24;;;;;;;;;;;16.40;99.90;;;;;;8421708;28;19929;-71
2023/10/02 06:56:29;;;;;;;;;;;16.50;99.90;;;;;;8420008;28;20027;-71
2023/10/02 07:00:54;;;;;;;;;;;16.60;99.90;;;;;;8403073;28;19924;-70
2023/10/02 07:04:56;;;;;;;;;;;16.60;99.90;;;;;;8425359;28;19924;-71
2023/10/02 07:09:10;;;;;;;;;;;16.70;99.90;;;;;;8399730;28;19924;-71
2023/10/02 07:13:22;;;;;;;;;;;16.80;99.90;;;;;;8417322;28;19989;-71
2023/10/02 07:27:32;;;;;;;;;;;17.00;99.90;;;;;;8419383;28;20373;-70
2023/10/02 07:31:34;;;;;;;;;;;17.10;99.90;;;;;;8420856;28;19935;-71
2023/10/02 07:35:36;;;;;;;;;;;17.10;99.90;;;;;;8417281;28;20015;-71
2023/10/02 07:39:38;;;;;;;;;;;17.20;99.90;;;;;;8399578;28;19989;-71
2023/10/02 07:43:41;;;;;;;;;;;17.20;99.90;;;;;;8402728;28;19925;-71
2023/10/02 07:48:08;;;;;;;;;;;17.30;99.90;;;;;;8398781;28;19924;-71
2023/10/02 07:52:11;;;;;;;;;;;17.30;99.90;;;;;;8416685;28;19939;-71
2023/10/02 07:56:16;;;;;;;;;;;17.40;99.90;;;;;;8412538;28;19924;-70
2023/10/02 08:00:33;;;;;;;;;;;17.40;99.90;;;;;;8396364;28;19959;-70
2023/10/02 08:04:47;;;;;;;;;;;17.50;99.90;;;;;;8417929;28;19928;-70
2023/10/02 08:13:09;;;;;;;;;;;17.60;99.90;;;;;;8412912;28;19932;-71
2023/10/02 08:17:21;;;;;;;;;;;17.70;99.90;;;;;;8419122;28;19928;-70
2023/10/02 08:21:35;;;;;;;;;;;17.70;99.90;;;;;;8404289;28;19947;-70
2023/10/02 08:35:47;;;;;;;;;;;17.90;99.90;;;;;;8409578;28;19959;-70
2023/10/02 08:39:51;;;;;;;;;;;18.00;99.90;;;;;;8396603;28;20260;-71
2023/10/02 08:43:54;;;;;;;;;;;18.10;99.90;;;;;;8397645;28;20295;-71
2023/10/02 08:47:55;;;;;;;;;;;18.10;99.90;;;;;;8415287;28;20383;-70
2023/10/02 09:02:11;;;;;;;;;;;18.30;99.90;;;;;;8418057;28;20478;-70
2023/10/02 09:21:38;;;;;;;;;;;18.40;99.90;;;;;;8422079;28;19920;-70
2023/10/02 09:26:16;;;;;;;;;;;18.60;99.90;;;;;;8403739;28;19930;-70
2023/10/02 09:40:27;;;;;;;;;;;19.10;99.90;;;;;;8422672;28;20427;-71
2023/10/02 09:44:30;;;;;;;;;;;19.20;99.90;;;;;;8403636;28;19924;-71
2023/10/02 09:48:47;;;;;;;;;;;19.30;99.90;;;;;;8421279;28;19977;-71
2023/10/02 09:52:58;;;;;;;;;;;19.30;99.90;;;;;;8425003;28;20409;-71
2023/10/02 09:57:17;;;;;;;;;;;19.30;99.90;;;;;;8424303;28;19978;-71
2023/10/02 10:05:46;;;;;;;;;;;19.30;99.90;;;;;;8416924;28;19924;-71
2023/10/02 10:10:07;;;;;;;;;;;19.40;99.90;;;;;;8413178;28;19925;-71
2023/10/02 10:14:37;;;;;;;;;;;19.50;99.90;;;;;;8407717;28;19993;-71
2023/10/02 10:23:34;;;;;;;;;;;19.60;99.90;;;;;;8412378;28;19932;-71
2023/10/02 10:27:39;;;;;;;;;;;19.80;99.90;;;;;;8409969;28;19924;-71
2023/10/02 10:31:55;;;;;;;;;;;19.80;99.90;;;;;;8428600;28;19981;-71
2023/10/02 10:35:59;;;;;;;;;;;19.80;99.90;;;;;;8420791;28;19930;-71
2023/10/02 10:40:34;;;;;;;;;;;19.90;99.90;;;;;;8398655;28;19930;-71
2023/10/02 10:44:32;;;;;;;;;;;19.90;99.90;;;;;;8402217;28;19935;-71
2023/10/02 10:48:34;;;;;;;;;;;19.90;99.90;;;;;;8418625;28;19924;-71
2023/10/02 10:52:35;;;;;;;;;;;20.00;99.90;;;;;;8406982;28;19924;-71
2023/10/02 10:56:43;;;;;;;;;;;20.00;99.90;;;;;;8398728;28;19931;-71
2023/10/02 11:00:49;;;;;;;;;;;20.10;99.90;;;;;;8406095;28;19971;-71
2023/10/02 11:04:51;;;;;;;;;;;20.10;99.90;;;;;;8416414;28;19931;-71
2023/10/02 11:09:16;;;;;;;;;;;20.30;99.90;;;;;;8407265;28;19932;-72
2023/10/02 11:13:24;;;;;;;;;;;20.50;99.90;;;;;;8410423;28;19935;-71
2023/10/02 11:17:32;;;;;;;;;;;20.70;99.90;;;;;;8389853;28;19928;-71
2023/10/02 11:21:44;;;;;;;;;;;20.90;99.90;;;;;;8415198;28;19924;-71
2023/10/02 11:25:50;;;;;;;;;;;21.10;99.90;;;;;;8391469;28;19928;-71
2023/10/02 11:30:01;;;;;;;;;;;21.20;99.90;;;;;;8389461;28;19935;-71
2023/10/02 11:34:08;;;;;;;;;;;21.20;99.90;;;;;;8400630;28;19925;-71
2023/10/02 11:38:30;;;;;;;;;;;21.30;99.90;;;;;;8385057;28;20260;-71
2023/10/02 11:42:31;;;;;;;;;;;21.20;99.90;;;;;;8386213;28;20330;-71
2023/10/02 11:46:33;;;;;;;;;;;21.20;99.90;;;;;;8380834;28;20287;-71
2023/10/02 11:50:35;;;;;;;;;;;21.10;99.90;;;;;;8392984;28;19932;-71
2023/10/02 11:54:39;;;;;;;;;;;21.20;99.90;;;;;;8392684;28;19971;-71
2023/10/02 11:58:41;;;;;;;;;;;21.20;99.90;;;;;;8378647;28;19942;-71
2023/10/02 12:02:45;;;;;;;;;;;21.20;99.90;;;;;;8390931;28;19971;-71
2023/10/02 12:06:49;;;;;;;;;;;21.30;99.90;;;;;;8390949;28;19934;-71
2023/10/02 12:10:53;;;;;;;;;;;21.40;99.90;;;;;;8393531;28;20390;-71
2023/10/02 12:14:55;;;;;;;;;;;21.50;99.90;;;;;;8392858;28;20049;-71
2023/10/02 12:18:57;;;;;;;;;;;21.50;99.90;;;;;;8389134;28;19935;-71
2023/10/02 12:23:00;;;;;;;;;;;21.50;99.90;;;;;;8389027;28;19928;-71
2023/10/02 12:27:04;;;;;;;;;;;21.40;99.90;;;;;;8395420;28;20387;-71
2023/10/02 12:31:09;;;;;;;;;;;21.40;99.90;;;;;;8395282;28;19924;-71
2023/10/02 12:35:16;;;;;;;;;;;21.60;99.90;;;;;;8397709;28;20468;-72
2023/10/02 12:39:18;;;;;;;;;;;21.70;99.90;;;;;;8398857;28;20022;-71
2023/10/02 12:43:20;;;;;;;;;;;21.70;99.90;;;;;;8381271;28;19925;-71
2023/10/02 12:47:21;;;;;;;;;;;21.80;99.90;;;;;;8396904;28;19932;-71
2023/10/02 12:51:24;;;;;;;;;;;21.90;99.90;;;;;;8406469;28;19929;-71
2023/10/02 12:55:25;;;;;;;;;;;22.00;99.90;;;;;;8407650;28;19924;-72
2023/10/02 12:59:27;;;;;;;;;;;22.10;99.90;;;;;;8392036;28;19997;-71
2023/10/02 13:03:29;;;;;;;;;;;22.10;99.90;;;;;;8389729;28;19924;-71
2023/10/02 13:07:31;;;;;;;;;;;22.10;99.90;;;;;;8391928;28;20382;-71
2023/10/02 13:11:33;;;;;;;;;;;22.20;99.90;;;;;;8392000;28;19928;-71
2023/10/02 13:15:35;;;;;;;;;;;22.20;99.90;;;;;;8377581;28;20028;-71
2023/10/02 13:19:38;;;;;;;;;;;22.30;99.90;;;;;;8386464;28;19939;-71
2023/10/02 13:23:40;;;;;;;;;;;22.40;99.90;;;;;;8393049;28;19932;-71
2023/10/02 13:27:42;;;;;;;;;;;22.40;99.90;;;;;;8386664;28;20279;-71
2023/10/02 13:31:47;;;;;;;;;;;22.50;99.90;;;;;;8392839;28;19968;-71
2023/10/02 13:35:57;;;;;;;;;;;22.50;99.90;;;;;;8395567;28;19946;-72
2023/10/02 13:39:59;;;;;;;;;;;22.60;99.90;;;;;;8396634;28;19928;-71
2023/10/02 13:44:03;;;;;;;;;;;22.70;99.90;;;;;;8395790;28;20445;-72
2023/10/02 13:48:06;;;;;;;;;;;22.80;99.90;;;;;;8396665;28;19929;-71
2023/10/02 13:52:09;;;;;;;;;;;22.90;99.90;;;;;;8390368;28;19924;-72
2023/10/02 13:56:16;;;;;;;;;;;23.00;99.90;;;;;;8373051;28;19924;-72
2023/10/02 14:00:21;;;;;;;;;;;23.00;99.90;;;;;;8398436;28;20219;-72
2023/10/02 14:04:29;;;;;;;;;;;23.00;99.90;;;;;;8393372;28;19924;-72
2023/10/02 14:08:31;;;;;;;;;;;23.10;99.90;;;;;;8393797;28;19929;-72
2023/10/02 14:12:32;;;;;;;;;;;23.10;99.90;;;;;;8380697;28;19969;-72
2023/10/02 14:16:34;;;;;;;;;;;23.30;99.90;;;;;;8393130;28;20259;-72
2023/10/02 14:20:39;;;;;;;;;;;23.30;99.90;;;;;;8389746;28;20007;-72
2023/10/02 14:24:40;;;;;;;;;;;23.40;99.90;;;;;;8374570;28;19957;-72
2023/10/02 14:28:43;;;;;;;;;;;23.70;99.90;;;;;;8393562;28;19954;-73
2023/10/02 14:32:49;;;;;;;;;;;23.90;99.90;;;;;;8393824;28;19932;-72
2023/10/02 14:36:51;;;;;;;;;;;24.00;99.90;;;;;;8394684;28;19925;-73
2023/10/02 14:40:52;;;;;;;;;;;24.00;99.90;;;;;;8394208;28;19925;-72
2023/10/02 14:44:54;;;;;;;;;;;24.00;99.90;;;;;;8391096;28;19941;-72
2023/10/02 14:48:56;;;;;;;;;;;24.00;99.90;;;;;;8376255;28;19929;-73
2023/10/02 14:52:58;;;;;;;;;;;24.00;99.90;;;;;;8395325;28;19932;-73
2023/10/02 14:57:00;;;;;;;;;;;23.90;99.90;;;;;;8386792;28;19928;-73
2023/10/02 15:01:11;;;;;;;;;;;23.90;99.90;;;;;;8394002;28;19925;-72
2023/10/02 15:05:17;;;;;;;;;;;23.80;99.90;;;;;;8382787;28;19932;-73
2023/10/02 15:09:23;;;;;;;;;;;23.80;99.90;;;;;;8393684;28;20570;-73
2023/10/02 15:13:25;;;;;;;;;;;23.80;99.90;;;;;;8406388;28;20291;-73
2023/10/02 15:17:27;;;;;;;;;;;23.70;99.90;;;;;;8391783;28;20280;-71
2023/10/02 15:21:29;;;;;;;;;;;23.70;99.90;;;;;;8394646;28;19931;-72
2023/10/02 15:25:30;;;;;;;;;;;23.70;99.90;;;;;;8393447;28;19924;-73
2023/10/02 15:29:32;;;;;;;;;;;23.70;99.90;;;;;;8397138;28;20319;-73
2023/10/02 15:33:35;;;;;;;;;;;23.70;99.90;;;;;;8367314;28;19924;-73
2023/10/02 15:37:42;;;;;;;;;;;23.70;99.90;;;;;;8386677;28;19928;-72
2023/10/02 15:41:44;;;;;;;;;;;23.70;99.90;;;;;;8389673;28;20122;-73
2023/10/02 15:45:52;;;;;;;;;;;23.70;99.90;;;;;;8392715;28;20021;-73
2023/10/02 15:49:53;;;;;;;;;;;23.80;99.90;;;;;;8371823;28;19924;-73
2023/10/02 15:53:56;;;;;;;;;;;23.80;99.90;;;;;;8373647;28;20332;-72
2023/10/02 15:57:57;;;;;;;;;;;23.80;99.90;;;;;;8378757;28;20346;-72
2023/10/02 16:01:59;;;;;;;;;;;23.80;99.90;;;;;;8390194;28;19936;-73
2023/10/02 16:06:02;;;;;;;;;;;23.80;99.90;;;;;;8394583;28;19944;-73
2023/10/02 16:10:06;;;;;;;;;;;23.80;99.90;;;;;;8392376;28;19935;-72
2023/10/02 16:14:07;;;;;;;;;;;23.80;99.90;;;;;;8395356;28;20439;-72
2023/10/02 16:18:10;;;;;;;;;;;23.80;99.90;;;;;;8391065;28;20026;-72
2023/10/02 16:22:12;;;;;;;;;;;23.70;99.90;;;;;;8389263;28;20027;-72
2023/10/02 16:26:14;;;;;;;;;;;23.60;99.90;;;;;;8395531;28;20382;-72
2023/10/02 16:30:18;;;;;;;;;;;23.50;99.90;;;;;;8390416;28;20346;-72
2023/10/02 16:34:20;;;;;;;;;;;23.50;99.90;;;;;;8392044;28;19978;-71
2023/10/02 16:38:22;;;;;;;;;;;23.40;99.90;;;;;;8392877;28;20544;-71
2023/10/02 16:42:24;;;;;;;;;;;23.30;99.90;;;;;;8390930;28;19928;-71
2023/10/02 16:46:25;;;;;;;;;;;23.30;99.90;;;;;;8407855;28;19928;-71
2023/10/02 16:50:28;;;;;;;;;;;23.20;99.90;;;;;;8393385;28;19924;-72
2023/10/02 16:54:31;;;;;;;;;;;23.10;99.90;;;;;;8387404;28;19928;-72
2023/10/02 16:58:32;;;;;;;;;;;23.00;99.90;;;;;;8402265;28;19935;-72
2023/10/02 17:02:34;;;;;;;;;;;22.90;99.90;;;;;;8392694;28;19932;-71
2023/10/02 17:06:36;;;;;;;;;;;22.80;99.90;;;;;;8398870;28;20363;-71
2023/10/02 17:10:37;;;;;;;;;;;22.60;99.90;;;;;;8378476;28;19932;-72
2023/10/02 17:14:39;;;;;;;;;;;22.50;99.90;;;;;;8375363;28;19971;-72
2023/10/02 17:18:41;;;;;;;;;;;22.50;99.90;;;;;;8392890;28;19928;-72
2023/10/02 17:22:46;;;;;;;;;;;22.40;99.90;;;;;;8393094;28;20296;-72
2023/10/02 17:26:49;;;;;;;;;;;22.30;99.90;;;;;;8403042;28;19924;-71
2023/10/02 17:30:50;;;;;;;;;;;22.20;99.90;;;;;;8386157;28;20023;-72
2023/10/02 17:34:53;;;;;;;;;;;22.10;99.90;;;;;;8388149;28;19925;-71
2023/10/02 17:38:55;;;;;;;;;;;22.00;99.90;;;;;;8403566;28;19925;-71
2023/10/02 17:42:56;;;;;;;;;;;21.90;99.90;;;;;;8389742;28;19933;-71
2023/10/02 17:47:00;;;;;;;;;;;21.80;99.90;;;;;;8402131;28;19932;-71
2023/10/02 17:51:01;;;;;;;;;;;21.70;99.90;;;;;;8387962;28;19934;-72
2023/10/02 17:55:04;;;;;;;;;;;21.70;99.90;;;;;;8417206;28;19954;-72
2023/10/02 17:59:06;;;;;;;;;;;21.60;99.90;;;;;;8407430;28;19924;-72
2023/10/02 18:03:10;;;;;;;;;;;21.50;99.90;;;;;;8404982;28;19932;-72
2023/10/02 18:07:12;;;;;;;;;;;21.40;99.90;;;;;;8391336;28;19935;-71
2023/10/02 18:11:14;;;;;;;;;;;21.40;99.90;;;;;;8384977;28;19925;-72
2023/10/02 18:15:18;;;;;;;;;;;21.30;99.90;;;;;;8398403;28;19932;-71
2023/10/02 18:19:20;;;;;;;;;;;21.30;99.90;;;;;;8396302;28;19924;-71
2023/10/02 18:23:21;;;;;;;;;;;21.20;99.90;;;;;;8386202;28;20430;-72
2023/10/02 18:27:25;;;;;;;;;;;21.20;99.90;;;;;;8391700;28;19960;-71
2023/10/02 18:31:27;;;;;;;;;;;21.20;99.90;;;;;;8372373;28;20291;-72
2023/10/02 18:35:30;;;;;;;;;;;21.10;99.90;;;;;;8374520;28;19947;-72
2023/10/02 18:39:31;;;;;;;;;;;21.10;99.90;;;;;;8392931;28;19931;-72
2023/10/02 18:43:33;;;;;;;;;;;21.00;99.90;;;;;;8392356;28;19932;-72
2023/10/02 18:47:35;;;;;;;;;;;21.00;99.90;;;;;;8397257;28;19924;-72
2023/10/02 18:51:37;;;;;;;;;;;21.00;99.90;;;;;;8388006;28;20304;-72
2023/10/02 18:55:40;;;;;;;;;;;20.90;99.90;;;;;;8371442;28;19935;-72
2023/10/02 18:59:41;;;;;;;;;;;20.80;99.90;;;;;;8371884;28;20376;-72
2023/10/02 19:03:44;;;;;;;;;;;20.80;99.90;;;;;;8389430;28;19924;-72
2023/10/02 19:07:46;;;;;;;;;;;20.80;99.90;;;;;;8391560;28;19928;-72
2023/10/02 19:11:47;;;;;;;;;;;20.70;99.90;;;;;;8388045;28;20568;-72
2023/10/02 19:15:49;;;;;;;;;;;20.70;99.90;;;;;;8377892;28;19939;-72
2023/10/02 19:19:52;;;;;;;;;;;20.60;99.90;;;;;;8386122;28;20331;-72
2023/10/02 19:23:53;;;;;;;;;;;20.60;99.90;;;;;;8385432;28;19931;-72
2023/10/02 19:27:55;;;;;;;;;;;20.60;99.90;;;;;;8387894;28;19925;-71
2023/10/02 19:31:57;;;;;;;;;;;20.50;99.90;;;;;;8387372;28;19924;-71
2023/10/02 19:36:03;;;;;;;;;;;20.50;99.90;;;;;;8387995;28;19924;-72
2023/10/02 19:40:05;;;;;;;;;;;20.50;99.90;;;;;;8386674;28;19978;-72
2023/10/02 19:44:06;;;;;;;;;;;20.40;99.90;;;;;;8392818;28;20001;-72
2023/10/02 19:48:08;;;;;;;;;;;20.40;99.90;;;;;;8369678;28;20034;-71
2023/10/02 19:52:11;;;;;;;;;;;20.40;99.90;;;;;;8379083;28;19931;-72
2023/10/02 19:56:13;;;;;;;;;;;20.40;99.90;;;;;;8387814;28;19925;-72
2023/10/02 20:00:18;;;;;;;;;;;20.30;99.90;;;;;;8391109;28;19951;-71
2023/10/02 20:04:22;;;;;;;;;;;20.20;99.90;;;;;;8393868;28;19974;-71
2023/10/02 20:08:23;;;;;;;;;;;20.20;99.90;;;;;;8374794;28;19932;-71
2023/10/02 20:12:25;;;;;;;;;;;20.20;99.90;;;;;;8384970;28;20569;-71
2023/10/02 20:16:27;;;;;;;;;;;20.20;99.90;;;;;;8383597;28;19929;-72
2023/10/02 20:20:28;;;;;;;;;;;20.20;99.90;;;;;;8394517;28;19924;-71
2023/10/02 20:24:32;;;;;;;;;;;20.20;99.90;;;;;;8391581;28;20370;-72
2023/10/02 20:28:33;;;;;;;;;;;20.20;99.90;;;;;;8388031;28;19947;-72
2023/10/02 20:32:36;;;;;;;;;;;20.10;99.90;;;;;;8372344;28;19931;-72
2023/10/02 20:36:37;;;;;;;;;;;20.10;99.90;;;;;;8387507;28;19978;-72
2023/10/02 20:40:41;;;;;;;;;;;20.10;99.90;;;;;;8371665;28;20295;-72
2023/10/02 20:44:43;;;;;;;;;;;20.10;99.90;;;;;;8401647;28;19975;-72
2023/10/02 20:48:45;;;;;;;;;;;20.10;99.90;;;;;;8378964;28;19932;-72
2023/10/02 20:52:49;;;;;;;;;;;20.10;99.90;;;;;;8397143;28;19971;-72
2023/10/02 20:56:51;;;;;;;;;;;20.20;99.90;;;;;;8393933;28;20323;-72
2023/10/02 21:00:52;;;;;;;;;;;20.20;99.90;;;;;;8394639;28;19931;-72
2023/10/02 21:04:54;;;;;;;;;;;20.20;99.90;;;;;;8418892;28;20387;-72
2023/10/02 21:08:59;;;;;;;;;;;20.20;99.90;;;;;;8398252;28;19986;-72
2023/10/02 21:13:01;;;;;;;;;;;20.20;99.90;;;;;;8420621;28;19932;-72
2023/10/02 21:17:02;;;;;;;;;;;20.30;99.90;;;;;;8405237;28;19950;-72
2023/10/02 21:21:04;;;;;;;;;;;20.20;99.90;;;;;;8419106;28;20375;-71
2023/10/02 21:25:09;;;;;;;;;;;20.20;99.90;;;;;;8408232;28;19931;-72
2023/10/02 21:29:11;;;;;;;;;;;20.20;99.90;;;;;;8414370;28;19924;-72
2023/10/02 21:33:12;;;;;;;;;;;20.20;99.90;;;;;;8420495;28;19931;-72
2023/10/02 21:37:14;;;;;;;;;;;20.20;99.90;;;;;;8417659;28;19928;-72
2023/10/02 21:41:17;;;;;;;;;;;20.20;99.90;;;;;;8420401;28;19924;-71
2023/10/02 21:45:18;;;;;;;;;;;20.20;99.90;;;;;;8414402;28;19924;-71
2023/10/02 21:49:20;;;;;;;;;;;20.10;99.90;;;;;;8426270;28;19924;-70
2023/10/02 21:53:22;;;;;;;;;;;20.10;99.90;;;;;;8415733;28;19928;-71
2023/10/02 21:57:23;;;;;;;;;;;20.10;99.90;;;;;;8418786;28;19924;-71
2023/10/02 22:01:26;;;;;;;;;;;20.10;99.90;;;;;;8412648;28;19959;-71
2023/10/02 22:05:28;;;;;;;;;;;20.00;99.90;;;;;;8406649;28;19931;-71
2023/10/02 22:09:30;;;;;;;;;;;20.10;99.90;;;;;;8408061;28;19925;-71
2023/10/02 22:13:31;;;;;;;;;;;20.10;99.90;;;;;;8414065;28;19978;-71
2023/10/02 22:17:33;;;;;;;;;;;20.10;99.90;;;;;;8415920;28;20302;-71
2023/10/02 22:21:36;;;;;;;;;;;20.00;99.90;;;;;;8413659;28;20333;-71
2023/10/02 22:25:39;;;;;;;;;;;20.00;99.90;;;;;;8398110;28;20333;-71
2023/10/02 22:29:43;;;;;;;;;;;20.00;99.90;;;;;;8398514;28;22400;-71
2023/10/02 22:43:57;;;;;;;;;;;20.00;99.90;;;;;;8416114;28;20299;-71
2023/10/02 22:47:59;;;;;;;;;;;20.00;99.90;;;;;;8390313;28;20283;-71
2023/10/02 22:52:00;;;;;;;;;;;20.00;99.90;;;;;;8417168;28;19981;-71
2023/10/02 22:56:03;;;;;;;;;;;20.00;99.90;;;;;;8414574;28;19924;-71
2023/10/02 23:00:06;;;;;;;;;;;19.90;99.90;;;;;;8417967;28;19966;-71
2023/10/02 23:04:10;;;;;;;;;;;19.90;99.90;;;;;;8399192;28;19930;-71
2023/10/02 23:08:12;;;;;;;;;;;19.90;99.90;;;;;;8406449;28;20418;-71
2023/10/02 23:12:14;;;;;;;;;;;19.90;99.90;;;;;;8417075;28;19928;-71
2023/10/02 23:16:17;;;;;;;;;;;19.90;99.90;;;;;;8416730;28;19927;-71
2023/10/02 23:20:19;;;;;;;;;;;19.90;99.90;;;;;;8397190;28;20151;-71
2023/10/02 23:24:21;;;;;;;;;;;19.90;99.90;;;;;;8416925;28;19925;-71
2023/10/02 23:38:29;;;;;;;;;;;19.80;99.90;;;;;;8413791;28;19935;-71
2023/10/02 23:42:30;;;;;;;;;;;19.80;99.90;;;;;;8411843;28;19985;-70
2023/10/02 23:46:32;;;;;;;;;;;19.80;99.90;;;;;;8398477;28;20624;-71
2023/10/02 23:50:43;;;;;;;;;;;19.80;99.90;;;;;;8408931;28;20265;-71
2023/10/02 23:54:58;;;;;;;;;;;19.80;99.90;;;;;;8409963;28;19924;-71
2023/10/02 23:59:03;;;;;;;;;;;19.80;99.90;;;;;;8408242;28;19928;-70
